sensor_id;sensor_type;location;lat;lon;timestamp;P1;durP1;ratioP1;P2;durP2;ratioP2
13731;SDS011;6937;56.096;12.664;2023-04-24T00:01:46;22.88;;;20.77;;
13731;SDS011;6937;56.096;12.664;2023-04-24T00:04:11;23.27;;;20.77;;
13731;SDS011;6937;56.096;12.664;2023-04-24T00:06:39;23.88;;;20.83;;
13731;SDS011;6937;56.096;12.664;2023-04-24T00:09:07;23.20;;;20.85;;
13731;SDS011;6937;56.096;12.664;2023-04-24T00:11:35;22.90;;;20.48;;
13731;SDS011;6937;56.096;12.664;2023-04-24T00:14:00;21.88;;;19.65;;
13731;SDS011;6937;56.096;12.664;2023-04-24T00:16:26;22.58;;;20.45;;
13731;SDS011;6937;56.096;12.664;2023-04-24T00:18:51;22.58;;;20.48;;
13731;SDS011;6937;56.096;12.664;2023-04-24T00:21:21;23.52;;;21.13;;
13731;SDS011;6937;56.096;12.664;2023-04-24T00:23:47;23.85;;;21.38;;
13731;SDS011;6937;56.096;12.664;2023-04-24T00:26:12;25.60;;;22.38;;
13731;SDS011;6937;56.096;12.664;2023-04-24T00:28:38;23.17;;;20.95;;
13731;SDS011;6937;56.096;12.664;2023-04-24T00:31:04;24.10;;;21.52;;
13731;SDS011;6937;56.096;12.664;2023-04-24T00:33:29;24.75;;;22.48;;
13731;SDS011;6937;56.096;12.664;2023-04-24T00:35:54;21.83;;;19.70;;
13731;SDS011;6937;56.096;12.664;2023-04-24T00:38:20;26.92;;;22.95;;
13731;SDS011;6937;56.096;12.664;2023-04-24T00:40:47;21.80;;;19.63;;
13731;SDS011;6937;56.096;12.664;2023-04-24T00:43:13;20.77;;;18.85;;
13731;SDS011;6937;56.096;12.664;2023-04-24T00:45:38;23.05;;;20.73;;
13731;SDS011;6937;56.096;12.664;2023-04-24T00:48:04;21.17;;;19.05;;
13731;SDS011;6937;56.096;12.664;2023-04-24T00:50:29;22.00;;;19.60;;
13731;SDS011;6937;56.096;12.664;2023-04-24T00:52:55;21.27;;;19.20;;
13731;SDS011;6937;56.096;12.664;2023-04-24T00:55:21;21.88;;;19.67;;
13731;SDS011;6937;56.096;12.664;2023-04-24T00:57:46;22.67;;;20.45;;
13731;SDS011;6937;56.096;12.664;2023-04-24T01:00:13;22.13;;;19.73;;
13731;SDS011;6937;56.096;12.664;2023-04-24T01:02:40;21.50;;;19.40;;
13731;SDS011;6937;56.096;12.664;2023-04-24T01:05:10;20.55;;;18.52;;
13731;SDS011;6937;56.096;12.664;2023-04-24T01:07:40;20.02;;;17.85;;
13731;SDS011;6937;56.096;12.664;2023-04-24T01:10:10;19.95;;;17.95;;
13731;SDS011;6937;56.096;12.664;2023-04-24T01:12:37;19.25;;;17.35;;
13731;SDS011;6937;56.096;12.664;2023-04-24T01:15:02;19.10;;;17.23;;
13731;SDS011;6937;56.096;12.664;2023-04-24T01:17:28;18.02;;;16.08;;
13731;SDS011;6937;56.096;12.664;2023-04-24T01:19:54;19.05;;;16.58;;
13731;SDS011;6937;56.096;12.664;2023-04-24T01:22:21;17.40;;;15.70;;
13731;SDS011;6937;56.096;12.664;2023-04-24T01:24:47;18.63;;;16.75;;
13731;SDS011;6937;56.096;12.664;2023-04-24T01:27:12;17.60;;;16.00;;
13731;SDS011;6937;56.096;12.664;2023-04-24T01:29:38;17.10;;;15.45;;
13731;SDS011;6937;56.096;12.664;2023-04-24T01:32:04;15.93;;;14.43;;
13731;SDS011;6937;56.096;12.664;2023-04-24T01:34:30;16.40;;;14.80;;
13731;SDS011;6937;56.096;12.664;2023-04-24T01:36:55;16.73;;;15.23;;
13731;SDS011;6937;56.096;12.664;2023-04-24T01:39:21;18.63;;;16.83;;
13731;SDS011;6937;56.096;12.664;2023-04-24T01:41:48;17.08;;;15.45;;
13731;SDS011;6937;56.096;12.664;2023-04-24T01:44:15;16.00;;;14.50;;
13731;SDS011;6937;56.096;12.664;2023-04-24T01:46:40;16.60;;;15.10;;
13731;SDS011;6937;56.096;12.664;2023-04-24T01:49:06;14.80;;;13.40;;
13731;SDS011;6937;56.096;12.664;2023-04-24T01:51:31;16.10;;;14.50;;
13731;SDS011;6937;56.096;12.664;2023-04-24T01:53:57;16.52;;;14.85;;
13731;SDS011;6937;56.096;12.664;2023-04-24T01:56:22;16.60;;;15.00;;
13731;SDS011;6937;56.096;12.664;2023-04-24T01:58:51;15.23;;;13.77;;
13731;SDS011;6937;56.096;12.664;2023-04-24T02:01:20;15.00;;;13.60;;
13731;SDS011;6937;56.096;12.664;2023-04-24T02:03:46;15.82;;;14.38;;
13731;SDS011;6937;56.096;12.664;2023-04-24T02:06:11;15.77;;;14.18;;
13731;SDS011;6937;56.096;12.664;2023-04-24T02:08:37;15.65;;;14.25;;
13731;SDS011;6937;56.096;12.664;2023-04-24T02:11:02;14.73;;;13.43;;
13731;SDS011;6937;56.096;12.664;2023-04-24T02:13:28;15.57;;;14.00;;
13731;SDS011;6937;56.096;12.664;2023-04-24T02:15:54;14.68;;;13.38;;
13731;SDS011;6937;56.096;12.664;2023-04-24T02:18:19;16.17;;;14.60;;
13731;SDS011;6937;56.096;12.664;2023-04-24T02:20:45;15.70;;;14.18;;
13731;SDS011;6937;56.096;12.664;2023-04-24T02:23:10;14.70;;;13.23;;
13731;SDS011;6937;56.096;12.664;2023-04-24T02:25:36;15.02;;;13.63;;
13731;SDS011;6937;56.096;12.664;2023-04-24T02:28:01;15.57;;;14.07;;
13731;SDS011;6937;56.096;12.664;2023-04-24T02:30:27;14.98;;;13.38;;
13731;SDS011;6937;56.096;12.664;2023-04-24T02:32:52;15.50;;;13.90;;
13731;SDS011;6937;56.096;12.664;2023-04-24T02:35:18;15.05;;;13.65;;
13731;SDS011;6937;56.096;12.664;2023-04-24T02:37:44;14.88;;;13.38;;
13731;SDS011;6937;56.096;12.664;2023-04-24T02:40:09;13.77;;;12.57;;
13731;SDS011;6937;56.096;12.664;2023-04-24T02:42:35;13.43;;;12.23;;
13731;SDS011;6937;56.096;12.664;2023-04-24T02:45:00;13.43;;;12.30;;
13731;SDS011;6937;56.096;12.664;2023-04-24T02:47:25;14.10;;;12.52;;
13731;SDS011;6937;56.096;12.664;2023-04-24T02:49:51;14.07;;;12.68;;
13731;SDS011;6937;56.096;12.664;2023-04-24T02:52:16;15.00;;;13.60;;
13731;SDS011;6937;56.096;12.664;2023-04-24T02:54:42;13.57;;;12.38;;
13731;SDS011;6937;56.096;12.664;2023-04-24T02:57:08;14.60;;;13.20;;
13731;SDS011;6937;56.096;12.664;2023-04-24T02:59:33;13.52;;;12.32;;
13731;SDS011;6937;56.096;12.664;2023-04-24T03:01:58;13.30;;;12.10;;
13731;SDS011;6937;56.096;12.664;2023-04-24T03:04:24;13.00;;;11.80;;
13731;SDS011;6937;56.096;12.664;2023-04-24T03:06:50;12.13;;;11.02;;
13731;SDS011;6937;56.096;12.664;2023-04-24T03:09:18;12.43;;;11.23;;
13731;SDS011;6937;56.096;12.664;2023-04-24T03:11:43;12.30;;;11.10;;
13731;SDS011;6937;56.096;12.664;2023-04-24T03:14:09;11.45;;;10.35;;
13731;SDS011;6937;56.096;12.664;2023-04-24T03:16:34;11.38;;;10.23;;
13731;SDS011;6937;56.096;12.664;2023-04-24T03:18:59;11.10;;;10.00;;
13731;SDS011;6937;56.096;12.664;2023-04-24T03:21:25;10.38;;;9.38;;
13731;SDS011;6937;56.096;12.664;2023-04-24T03:23:51;10.43;;;9.32;;
13731;SDS011;6937;56.096;12.664;2023-04-24T03:26:17;10.10;;;9.07;;
13731;SDS011;6937;56.096;12.664;2023-04-24T03:28:42;10.18;;;9.20;;
13731;SDS011;6937;56.096;12.664;2023-04-24T03:31:07;9.73;;;8.82;;
13731;SDS011;6937;56.096;12.664;2023-04-24T03:33:33;10.32;;;9.18;;
13731;SDS011;6937;56.096;12.664;2023-04-24T03:35:58;10.40;;;8.73;;
13731;SDS011;6937;56.096;12.664;2023-04-24T03:38:24;8.85;;;8.00;;
13731;SDS011;6937;56.096;12.664;2023-04-24T03:40:49;9.48;;;8.48;;
13731;SDS011;6937;56.096;12.664;2023-04-24T03:43:15;9.77;;;8.88;;
13731;SDS011;6937;56.096;12.664;2023-04-24T03:45:40;10.07;;;9.18;;
13731;SDS011;6937;56.096;12.664;2023-04-24T03:48:06;10.73;;;9.02;;
13731;SDS011;6937;56.096;12.664;2023-04-24T03:50:32;9.95;;;8.95;;
13731;SDS011;6937;56.096;12.664;2023-04-24T03:52:58;9.63;;;8.60;;
13731;SDS011;6937;56.096;12.664;2023-04-24T03:55:23;10.35;;;9.25;;
13731;SDS011;6937;56.096;12.664;2023-04-24T03:57:48;10.50;;;8.38;;
13731;SDS011;6937;56.096;12.664;2023-04-24T04:00:14;10.02;;;9.00;;
13731;SDS011;6937;56.096;12.664;2023-04-24T04:02:40;9.88;;;8.88;;
13731;SDS011;6937;56.096;12.664;2023-04-24T04:05:05;9.23;;;8.32;;
13731;SDS011;6937;56.096;12.664;2023-04-24T04:07:31;9.38;;;8.48;;
13731;SDS011;6937;56.096;12.664;2023-04-24T04:09:56;9.25;;;8.20;;
13731;SDS011;6937;56.096;12.664;2023-04-24T04:12:21;9.38;;;8.48;;
13731;SDS011;6937;56.096;12.664;2023-04-24T04:14:47;9.45;;;8.55;;
13731;SDS011;6937;56.096;12.664;2023-04-24T04:17:12;10.10;;;9.13;;
13731;SDS011;6937;56.096;12.664;2023-04-24T04:19:37;9.35;;;8.43;;
13731;SDS011;6937;56.096;12.664;2023-04-24T04:22:03;9.57;;;8.68;;
13731;SDS011;6937;56.096;12.664;2023-04-24T04:24:28;9.45;;;8.55;;
13731;SDS011;6937;56.096;12.664;2023-04-24T04:26:54;10.05;;;9.13;;
13731;SDS011;6937;56.096;12.664;2023-04-24T04:29:21;10.57;;;9.55;;
13731;SDS011;6937;56.096;12.664;2023-04-24T04:31:47;10.18;;;9.20;;
13731;SDS011;6937;56.096;12.664;2023-04-24T04:34:13;11.98;;;10.18;;
13731;SDS011;6937;56.096;12.664;2023-04-24T04:36:39;11.07;;;10.02;;
13731;SDS011;6937;56.096;12.664;2023-04-24T04:39:05;10.82;;;9.80;;
13731;SDS011;6937;56.096;12.664;2023-04-24T04:41:31;11.07;;;9.98;;
13731;SDS011;6937;56.096;12.664;2023-04-24T04:44:00;11.45;;;10.40;;
13731;SDS011;6937;56.096;12.664;2023-04-24T04:46:26;11.25;;;10.20;;
13731;SDS011;6937;56.096;12.664;2023-04-24T04:48:52;12.65;;;11.35;;
13731;SDS011;6937;56.096;12.664;2023-04-24T04:51:18;11.43;;;10.38;;
13731;SDS011;6937;56.096;12.664;2023-04-24T04:53:43;11.88;;;10.85;;
13731;SDS011;6937;56.096;12.664;2023-04-24T04:56:08;12.45;;;11.23;;
13731;SDS011;6937;56.096;12.664;2023-04-24T04:58:34;11.95;;;10.75;;
13731;SDS011;6937;56.096;12.664;2023-04-24T05:00:59;13.95;;;12.40;;
13731;SDS011;6937;56.096;12.664;2023-04-24T05:03:25;14.32;;;12.85;;
13731;SDS011;6937;56.096;12.664;2023-04-24T05:05:50;15.82;;;14.13;;
13731;SDS011;6937;56.096;12.664;2023-04-24T05:08:16;18.73;;;15.63;;
13731;SDS011;6937;56.096;12.664;2023-04-24T05:10:41;14.90;;;13.38;;
13731;SDS011;6937;56.096;12.664;2023-04-24T05:13:06;16.65;;;14.68;;
13731;SDS011;6937;56.096;12.664;2023-04-24T05:15:32;17.48;;;14.80;;
13731;SDS011;6937;56.096;12.664;2023-04-24T05:17:57;17.02;;;14.38;;
13731;SDS011;6937;56.096;12.664;2023-04-24T05:20:23;15.80;;;14.20;;
13731;SDS011;6937;56.096;12.664;2023-04-24T05:22:48;15.25;;;13.85;;
13731;SDS011;6937;56.096;12.664;2023-04-24T05:25:13;14.60;;;13.07;;
13731;SDS011;6937;56.096;12.664;2023-04-24T05:27:39;14.40;;;13.10;;
13731;SDS011;6937;56.096;12.664;2023-04-24T05:30:05;15.13;;;13.63;;
13731;SDS011;6937;56.096;12.664;2023-04-24T05:32:31;14.48;;;13.13;;
13731;SDS011;6937;56.096;12.664;2023-04-24T05:34:57;13.95;;;12.65;;
13731;SDS011;6937;56.096;12.664;2023-04-24T05:37:22;15.43;;;13.93;;
13731;SDS011;6937;56.096;12.664;2023-04-24T05:39:47;14.25;;;12.80;;
13731;SDS011;6937;56.096;12.664;2023-04-24T05:42:13;14.32;;;12.82;;
13731;SDS011;6937;56.096;12.664;2023-04-24T05:44:38;13.85;;;12.52;;
13731;SDS011;6937;56.096;12.664;2023-04-24T05:47:03;12.90;;;11.60;;
13731;SDS011;6937;56.096;12.664;2023-04-24T05:49:29;13.07;;;11.88;;
13731;SDS011;6937;56.096;12.664;2023-04-24T05:51:54;13.48;;;12.18;;
13731;SDS011;6937;56.096;12.664;2023-04-24T05:54:20;14.05;;;12.55;;
13731;SDS011;6937;56.096;12.664;2023-04-24T05:56:45;14.07;;;12.77;;
13731;SDS011;6937;56.096;12.664;2023-04-24T05:59:11;13.18;;;11.98;;
13731;SDS011;6937;56.096;12.664;2023-04-24T06:01:36;13.40;;;12.07;;
13731;SDS011;6937;56.096;12.664;2023-04-24T06:04:02;13.68;;;12.32;;
13731;SDS011;6937;56.096;12.664;2023-04-24T06:06:28;12.30;;;11.25;;
13731;SDS011;6937;56.096;12.664;2023-04-24T06:08:54;13.25;;;11.95;;
13731;SDS011;6937;56.096;12.664;2023-04-24T06:11:19;11.60;;;10.60;;
13731;SDS011;6937;56.096;12.664;2023-04-24T06:13:45;11.32;;;10.23;;
13731;SDS011;6937;56.096;12.664;2023-04-24T06:16:10;11.65;;;10.55;;
13731;SDS011;6937;56.096;12.664;2023-04-24T06:18:36;10.77;;;9.77;;
13731;SDS011;6937;56.096;12.664;2023-04-24T06:21:01;10.25;;;9.25;;
13731;SDS011;6937;56.096;12.664;2023-04-24T06:23:27;9.85;;;8.95;;
13731;SDS011;6937;56.096;12.664;2023-04-24T06:25:52;10.65;;;9.65;;
13731;SDS011;6937;56.096;12.664;2023-04-24T06:28:18;10.77;;;9.77;;
13731;SDS011;6937;56.096;12.664;2023-04-24T06:30:43;10.50;;;9.52;;
13731;SDS011;6937;56.096;12.664;2023-04-24T06:33:09;10.95;;;9.85;;
13731;SDS011;6937;56.096;12.664;2023-04-24T06:35:35;10.52;;;9.43;;
13731;SDS011;6937;56.096;12.664;2023-04-24T06:38:01;10.05;;;9.15;;
13731;SDS011;6937;56.096;12.664;2023-04-24T06:40:26;9.23;;;8.45;;
13731;SDS011;6937;56.096;12.664;2023-04-24T06:42:52;10.35;;;9.45;;
13731;SDS011;6937;56.096;12.664;2023-04-24T06:45:17;9.73;;;8.93;;
13731;SDS011;6937;56.096;12.664;2023-04-24T06:47:42;9.90;;;9.00;;
13731;SDS011;6937;56.096;12.664;2023-04-24T06:50:08;9.10;;;8.30;;
13731;SDS011;6937;56.096;12.664;2023-04-24T06:52:33;10.05;;;9.18;;
13731;SDS011;6937;56.096;12.664;2023-04-24T06:54:59;9.85;;;9.00;;
13731;SDS011;6937;56.096;12.664;2023-04-24T06:57:26;9.68;;;8.80;;
13731;SDS011;6937;56.096;12.664;2023-04-24T06:59:51;10.20;;;9.30;;
13731;SDS011;6937;56.096;12.664;2023-04-24T07:02:16;10.32;;;9.43;;
13731;SDS011;6937;56.096;12.664;2023-04-24T07:04:42;12.02;;;9.60;;
13731;SDS011;6937;56.096;12.664;2023-04-24T07:07:07;10.20;;;9.32;;
13731;SDS011;6937;56.096;12.664;2023-04-24T07:09:34;9.95;;;9.05;;
13731;SDS011;6937;56.096;12.664;2023-04-24T07:12:03;11.02;;;9.95;;
13731;SDS011;6937;56.096;12.664;2023-04-24T07:14:28;10.23;;;9.32;;
13731;SDS011;6937;56.096;12.664;2023-04-24T07:16:54;10.10;;;9.20;;
13731;SDS011;6937;56.096;12.664;2023-04-24T07:19:19;10.40;;;9.50;;
13731;SDS011;6937;56.096;12.664;2023-04-24T07:21:45;11.68;;;10.68;;
13731;SDS011;6937;56.096;12.664;2023-04-24T07:24:10;12.20;;;10.82;;
13731;SDS011;6937;56.096;12.664;2023-04-24T07:26:38;11.52;;;10.40;;
13731;SDS011;6937;56.096;12.664;2023-04-24T07:29:04;10.93;;;10.02;;
13731;SDS011;6937;56.096;12.664;2023-04-24T07:31:30;10.93;;;9.98;;
13731;SDS011;6937;56.096;12.664;2023-04-24T07:33:55;12.25;;;11.05;;
13731;SDS011;6937;56.096;12.664;2023-04-24T07:36:22;11.05;;;9.95;;
13731;SDS011;6937;56.096;12.664;2023-04-24T07:38:49;11.30;;;10.20;;
13731;SDS011;6937;56.096;12.664;2023-04-24T07:41:15;11.35;;;10.25;;
13731;SDS011;6937;56.096;12.664;2023-04-24T07:43:41;10.43;;;9.50;;
13731;SDS011;6937;56.096;12.664;2023-04-24T07:46:07;10.75;;;9.75;;
13731;SDS011;6937;56.096;12.664;2023-04-24T07:48:33;11.35;;;10.25;;
13731;SDS011;6937;56.096;12.664;2023-04-24T07:50:58;11.73;;;10.63;;
13731;SDS011;6937;56.096;12.664;2023-04-24T07:53:24;10.95;;;9.85;;
13731;SDS011;6937;56.096;12.664;2023-04-24T07:55:49;10.52;;;9.43;;
13731;SDS011;6937;56.096;12.664;2023-04-24T07:58:15;10.10;;;9.13;;
13731;SDS011;6937;56.096;12.664;2023-04-24T08:00:40;9.63;;;8.73;;
13731;SDS011;6937;56.096;12.664;2023-04-24T08:03:06;9.40;;;8.50;;
13731;SDS011;6937;56.096;12.664;2023-04-24T08:05:31;10.43;;;9.15;;
13731;SDS011;6937;56.096;12.664;2023-04-24T08:07:56;8.75;;;7.85;;
13731;SDS011;6937;56.096;12.664;2023-04-24T08:10:22;8.88;;;8.07;;
13731;SDS011;6937;56.096;12.664;2023-04-24T08:12:48;7.97;;;7.25;;
13731;SDS011;6937;56.096;12.664;2023-04-24T08:15:13;8.52;;;7.82;;
13731;SDS011;6937;56.096;12.664;2023-04-24T08:17:39;7.75;;;7.15;;
13731;SDS011;6937;56.096;12.664;2023-04-24T08:20:04;8.82;;;7.95;;
13731;SDS011;6937;56.096;12.664;2023-04-24T08:22:31;8.10;;;7.40;;
13731;SDS011;6937;56.096;12.664;2023-04-24T08:24:56;8.30;;;7.60;;
13731;SDS011;6937;56.096;12.664;2023-04-24T08:27:23;8.35;;;7.68;;
13731;SDS011;6937;56.096;12.664;2023-04-24T08:29:49;8.20;;;7.47;;
13731;SDS011;6937;56.096;12.664;2023-04-24T08:32:14;7.55;;;6.85;;
13731;SDS011;6937;56.096;12.664;2023-04-24T08:34:40;8.27;;;7.63;;
13731;SDS011;6937;56.096;12.664;2023-04-24T08:37:05;8.07;;;7.38;;
13731;SDS011;6937;56.096;12.664;2023-04-24T08:39:31;7.70;;;7.10;;
13731;SDS011;6937;56.096;12.664;2023-04-24T08:41:56;8.00;;;7.28;;
13731;SDS011;6937;56.096;12.664;2023-04-24T08:44:30;7.90;;;7.30;;
13731;SDS011;6937;56.096;12.664;2023-04-24T08:46:57;8.40;;;7.60;;
13731;SDS011;6937;56.096;12.664;2023-04-24T08:49:23;8.10;;;7.40;;
13731;SDS011;6937;56.096;12.664;2023-04-24T08:51:50;7.93;;;7.25;;
13731;SDS011;6937;56.096;12.664;2023-04-24T08:54:18;7.72;;;7.05;;
13731;SDS011;6937;56.096;12.664;2023-04-24T08:56:44;7.90;;;7.13;;
13731;SDS011;6937;56.096;12.664;2023-04-24T08:59:12;6.97;;;6.28;;
13731;SDS011;6937;56.096;12.664;2023-04-24T09:01:39;6.75;;;6.15;;
13731;SDS011;6937;56.096;12.664;2023-04-24T09:04:06;6.53;;;6.03;;
13731;SDS011;6937;56.096;12.664;2023-04-24T09:06:35;6.70;;;6.05;;
13731;SDS011;6937;56.096;12.664;2023-04-24T09:09:01;6.38;;;5.88;;
13731;SDS011;6937;56.096;12.664;2023-04-24T09:11:28;5.88;;;5.38;;
13731;SDS011;6937;56.096;12.664;2023-04-24T09:13:55;5.53;;;5.13;;
13731;SDS011;6937;56.096;12.664;2023-04-24T09:16:21;6.03;;;5.50;;
13731;SDS011;6937;56.096;12.664;2023-04-24T09:18:49;5.32;;;4.82;;
13731;SDS011;6937;56.096;12.664;2023-04-24T09:21:14;4.97;;;4.57;;
13731;SDS011;6937;56.096;12.664;2023-04-24T09:23:40;5.72;;;5.22;;
13731;SDS011;6937;56.096;12.664;2023-04-24T09:26:05;5.15;;;4.75;;
13731;SDS011;6937;56.096;12.664;2023-04-24T09:28:37;5.57;;;4.30;;
13731;SDS011;6937;56.096;12.664;2023-04-24T09:31:08;5.15;;;4.72;;
13731;SDS011;6937;56.096;12.664;2023-04-24T09:33:38;5.40;;;4.70;;
13731;SDS011;6937;56.096;12.664;2023-04-24T09:36:03;4.70;;;4.30;;
13731;SDS011;6937;56.096;12.664;2023-04-24T09:38:31;5.32;;;4.82;;
13731;SDS011;6937;56.096;12.664;2023-04-24T09:41:07;4.80;;;4.40;;
13731;SDS011;6937;56.096;12.664;2023-04-24T09:43:38;4.85;;;4.43;;
13731;SDS011;6937;56.096;12.664;2023-04-24T09:46:04;4.35;;;4.00;;
13731;SDS011;6937;56.096;12.664;2023-04-24T09:48:34;5.22;;;4.28;;
13731;SDS011;6937;56.096;12.664;2023-04-24T09:51:01;5.97;;;4.50;;
13731;SDS011;6937;56.096;12.664;2023-04-24T09:53:28;4.65;;;4.25;;
13731;SDS011;6937;56.096;12.664;2023-04-24T09:55:55;5.00;;;4.47;;
13731;SDS011;6937;56.096;12.664;2023-04-24T09:58:26;5.00;;;4.47;;
13731;SDS011;6937;56.096;12.664;2023-04-24T10:00:54;4.95;;;4.55;;
13731;SDS011;6937;56.096;12.664;2023-04-24T10:03:21;5.13;;;4.63;;
13731;SDS011;6937;56.096;12.664;2023-04-24T10:05:49;4.88;;;4.47;;
13731;SDS011;6937;56.096;12.664;2023-04-24T10:08:16;5.03;;;4.63;;
13731;SDS011;6937;56.096;12.664;2023-04-24T10:10:43;5.10;;;4.70;;
13731;SDS011;6937;56.096;12.664;2023-04-24T10:13:11;6.10;;;4.97;;
13731;SDS011;6937;56.096;12.664;2023-04-24T10:15:38;6.57;;;4.80;;
13731;SDS011;6937;56.096;12.664;2023-04-24T10:18:05;5.10;;;4.70;;
13731;SDS011;6937;56.096;12.664;2023-04-24T10:20:31;5.38;;;4.63;;
13731;SDS011;6937;56.096;12.664;2023-04-24T10:22:59;6.10;;;4.35;;
13731;SDS011;6937;56.096;12.664;2023-04-24T10:25:33;5.00;;;4.50;;
13731;SDS011;6937;56.096;12.664;2023-04-24T10:28:00;4.47;;;4.07;;
13731;SDS011;6937;56.096;12.664;2023-04-24T10:30:27;4.35;;;4.05;;
13731;SDS011;6937;56.096;12.664;2023-04-24T10:33:03;4.97;;;4.20;;
13731;SDS011;6937;56.096;12.664;2023-04-24T10:35:31;4.93;;;4.50;;
13731;SDS011;6937;56.096;12.664;2023-04-24T10:38:06;5.43;;;4.53;;
13731;SDS011;6937;56.096;12.664;2023-04-24T10:40:35;5.30;;;4.05;;
13731;SDS011;6937;56.096;12.664;2023-04-24T10:43:04;5.40;;;4.90;;
13731;SDS011;6937;56.096;12.664;2023-04-24T10:45:33;5.60;;;5.10;;
13731;SDS011;6937;56.096;12.664;2023-04-24T10:50:29;5.57;;;5.13;;
13731;SDS011;6937;56.096;12.664;2023-04-24T10:53:07;4.88;;;4.47;;
13731;SDS011;6937;56.096;12.664;2023-04-24T10:58:11;6.97;;;6.38;;
13731;SDS011;6937;56.096;12.664;2023-04-24T11:00:40;6.65;;;6.00;;
13731;SDS011;6937;56.096;12.664;2023-04-24T11:03:07;6.50;;;5.90;;
13731;SDS011;6937;56.096;12.664;2023-04-24T11:05:49;6.80;;;6.20;;
13731;SDS011;6937;56.096;12.664;2023-04-24T11:08:27;6.38;;;5.88;;
13731;SDS011;6937;56.096;12.664;2023-04-24T11:11:21;6.80;;;6.10;;
13731;SDS011;6937;56.096;12.664;2023-04-24T11:16:26;6.32;;;5.82;;
13731;SDS011;6937;56.096;12.664;2023-04-24T11:21:33;5.90;;;5.45;;
13731;SDS011;6937;56.096;12.664;2023-04-24T11:29:23;6.32;;;5.20;;
13731;SDS011;6937;56.096;12.664;2023-04-24T11:32:22;5.57;;;5.07;;
13731;SDS011;6937;56.096;12.664;2023-04-24T11:34:53;5.63;;;5.15;;
13731;SDS011;6937;56.096;12.664;2023-04-24T11:37:21;5.95;;;5.20;;
13731;SDS011;6937;56.096;12.664;2023-04-24T11:39:56;5.85;;;5.35;;
13731;SDS011;6937;56.096;12.664;2023-04-24T11:42:23;5.78;;;5.28;;
13731;SDS011;6937;56.096;12.664;2023-04-24T11:44:49;5.70;;;5.30;;
13731;SDS011;6937;56.096;12.664;2023-04-24T11:47:16;5.60;;;5.20;;
13731;SDS011;6937;56.096;12.664;2023-04-24T11:49:42;6.13;;;5.53;;
13731;SDS011;6937;56.096;12.664;2023-04-24T11:52:07;6.20;;;5.60;;
13731;SDS011;6937;56.096;12.664;2023-04-24T11:54:32;5.85;;;5.35;;
13731;SDS011;6937;56.096;12.664;2023-04-24T11:56:58;5.95;;;5.45;;
13731;SDS011;6937;56.096;12.664;2023-04-24T11:59:24;6.22;;;5.72;;
13731;SDS011;6937;56.096;12.664;2023-04-24T12:01:50;5.60;;;5.20;;
13731;SDS011;6937;56.096;12.664;2023-04-24T12:04:16;5.95;;;5.45;;
13731;SDS011;6937;56.096;12.664;2023-04-24T12:09:28;6.30;;;5.80;;
13731;SDS011;6937;56.096;12.664;2023-04-24T12:11:54;6.15;;;5.57;;
13731;SDS011;6937;56.096;12.664;2023-04-24T12:14:23;6.00;;;5.60;;
13731;SDS011;6937;56.096;12.664;2023-04-24T12:16:49;5.40;;;5.00;;
13731;SDS011;6937;56.096;12.664;2023-04-24T12:19:20;5.88;;;5.38;;
13731;SDS011;6937;56.096;12.664;2023-04-24T12:21:58;6.63;;;5.30;;
13731;SDS011;6937;56.096;12.664;2023-04-24T12:24:24;5.50;;;4.90;;
13731;SDS011;6937;56.096;12.664;2023-04-24T12:26:50;5.50;;;5.10;;
13731;SDS011;6937;56.096;12.664;2023-04-24T12:29:19;5.88;;;5.40;;
13731;SDS011;6937;56.096;12.664;2023-04-24T12:31:48;5.88;;;5.25;;
13731;SDS011;6937;56.096;12.664;2023-04-24T12:34:21;5.22;;;4.75;;
13731;SDS011;6937;56.096;12.664;2023-04-24T12:36:48;6.63;;;5.63;;
13731;SDS011;6937;56.096;12.664;2023-04-24T12:39:17;6.47;;;5.88;;
13731;SDS011;6937;56.096;12.664;2023-04-24T12:41:50;7.28;;;6.55;;
13731;SDS011;6937;56.096;12.664;2023-04-24T12:44:55;6.72;;;6.13;;
13731;SDS011;6937;56.096;12.664;2023-04-24T12:47:13;6.68;;;6.07;;
13731;SDS011;6937;56.096;12.664;2023-04-24T12:49:39;6.68;;;6.18;;
13731;SDS011;6937;56.096;12.664;2023-04-24T12:52:04;7.13;;;5.68;;
13731;SDS011;6937;56.096;12.664;2023-04-24T12:54:32;6.55;;;6.05;;
13731;SDS011;6937;56.096;12.664;2023-04-24T12:56:58;6.90;;;6.25;;
13731;SDS011;6937;56.096;12.664;2023-04-24T12:59:23;6.75;;;6.18;;
13731;SDS011;6937;56.096;12.664;2023-04-24T13:01:49;7.28;;;6.57;;
13731;SDS011;6937;56.096;12.664;2023-04-24T13:04:15;7.55;;;6.82;;
13731;SDS011;6937;56.096;12.664;2023-04-24T13:06:42;7.55;;;6.88;;
13731;SDS011;6937;56.096;12.664;2023-04-24T13:09:07;8.27;;;7.38;;
13731;SDS011;6937;56.096;12.664;2023-04-24T13:11:33;8.32;;;7.53;;
13731;SDS011;6937;56.096;12.664;2023-04-24T13:13:58;9.23;;;8.05;;
13731;SDS011;6937;56.096;12.664;2023-04-24T13:16:23;7.30;;;6.70;;
13731;SDS011;6937;56.096;12.664;2023-04-24T13:18:49;8.07;;;7.32;;
13731;SDS011;6937;56.096;12.664;2023-04-24T13:21:14;8.18;;;7.47;;
13731;SDS011;6937;56.096;12.664;2023-04-24T13:23:39;8.70;;;7.80;;
13731;SDS011;6937;56.096;12.664;2023-04-24T13:26:06;8.88;;;7.68;;
13731;SDS011;6937;56.096;12.664;2023-04-24T13:28:32;8.57;;;7.70;;
13731;SDS011;6937;56.096;12.664;2023-04-24T13:30:58;7.88;;;7.07;;
13731;SDS011;6937;56.096;12.664;2023-04-24T13:33:23;7.93;;;7.22;;
13731;SDS011;6937;56.096;12.664;2023-04-24T13:35:48;8.73;;;7.13;;
13731;SDS011;6937;56.096;12.664;2023-04-24T13:38:14;7.10;;;6.50;;
13731;SDS011;6937;56.096;12.664;2023-04-24T13:40:39;6.85;;;6.22;;
13731;SDS011;6937;56.096;12.664;2023-04-24T13:43:05;6.25;;;5.65;;
13731;SDS011;6937;56.096;12.664;2023-04-24T13:45:30;5.50;;;4.90;;
13731;SDS011;6937;56.096;12.664;2023-04-24T13:47:55;5.03;;;4.63;;
13731;SDS011;6937;56.096;12.664;2023-04-24T13:50:22;5.80;;;5.30;;
13731;SDS011;6937;56.096;12.664;2023-04-24T13:52:47;5.68;;;5.18;;
13731;SDS011;6937;56.096;12.664;2023-04-24T13:55:13;5.70;;;5.20;;
13731;SDS011;6937;56.096;12.664;2023-04-24T13:57:38;5.88;;;5.38;;
13731;SDS011;6937;56.096;12.664;2023-04-24T14:00:04;5.03;;;4.60;;
13731;SDS011;6937;56.096;12.664;2023-04-24T14:02:35;5.25;;;4.75;;
13731;SDS011;6937;56.096;12.664;2023-04-24T14:05:00;5.40;;;5.00;;
13731;SDS011;6937;56.096;12.664;2023-04-24T14:07:25;6.15;;;5.13;;
13731;SDS011;6937;56.096;12.664;2023-04-24T14:09:51;4.88;;;4.43;;
13731;SDS011;6937;56.096;12.664;2023-04-24T14:12:16;4.95;;;4.45;;
13731;SDS011;6937;56.096;12.664;2023-04-24T14:14:44;4.88;;;4.47;;
13731;SDS011;6937;56.096;12.664;2023-04-24T14:17:11;5.65;;;5.15;;
13731;SDS011;6937;56.096;12.664;2023-04-24T14:19:36;5.10;;;4.60;;
13731;SDS011;6937;56.096;12.664;2023-04-24T14:22:02;4.72;;;4.32;;
13731;SDS011;6937;56.096;12.664;2023-04-24T14:24:27;5.03;;;4.53;;
13731;SDS011;6937;56.096;12.664;2023-04-24T14:26:53;4.65;;;4.22;;
13731;SDS011;6937;56.096;12.664;2023-04-24T14:29:18;4.75;;;4.30;;
13731;SDS011;6937;56.096;12.664;2023-04-24T14:31:44;4.97;;;4.20;;
13731;SDS011;6937;56.096;12.664;2023-04-24T14:34:09;6.45;;;4.72;;
13731;SDS011;6937;56.096;12.664;2023-04-24T14:36:35;5.22;;;4.40;;
13731;SDS011;6937;56.096;12.664;2023-04-24T14:39:00;5.75;;;4.13;;
13731;SDS011;6937;56.096;12.664;2023-04-24T14:41:30;5.75;;;4.40;;
13731;SDS011;6937;56.096;12.664;2023-04-24T14:43:56;4.28;;;3.90;;
13731;SDS011;6937;56.096;12.664;2023-04-24T14:46:22;4.90;;;4.43;;
13731;SDS011;6937;56.096;12.664;2023-04-24T14:48:47;4.38;;;3.97;;
13731;SDS011;6937;56.096;12.664;2023-04-24T14:51:12;5.32;;;4.93;;